sensor_id;sensor_type;location;lat;lon;timestamp;P1;durP1;ratioP1;P2;durP2;ratioP2
78860;SDS011;68211;45.774;15.892;2023-05-07T00:00:42;4.25;;;3.85;;
78860;SDS011;68211;45.774;15.892;2023-05-07T00:03:08;4.15;;;3.40;;
78860;SDS011;68211;45.774;15.892;2023-05-07T00:05:35;4.53;;;3.90;;
78860;SDS011;68211;45.774;15.892;2023-05-07T00:08:02;5.55;;;4.05;;
78860;SDS011;68211;45.774;15.892;2023-05-07T00:10:28;5.05;;;3.80;;
78860;SDS011;68211;45.774;15.892;2023-05-07T00:12:54;4.63;;;3.80;;
78860;SDS011;68211;45.774;15.892;2023-05-07T00:15:22;5.88;;;3.55;;
78860;SDS011;68211;45.774;15.892;2023-05-07T00:17:49;4.97;;;4.30;;
78860;SDS011;68211;45.774;15.892;2023-05-07T00:20:15;4.50;;;4.10;;
78860;SDS011;68211;45.774;15.892;2023-05-07T00:22:42;7.70;;;4.30;;
78860;SDS011;68211;45.774;15.892;2023-05-07T00:25:11;4.15;;;3.83;;
78860;SDS011;68211;45.774;15.892;2023-05-07T00:27:38;4.60;;;4.20;;
78860;SDS011;68211;45.774;15.892;2023-05-07T00:30:05;4.60;;;4.18;;
78860;SDS011;68211;45.774;15.892;2023-05-07T00:32:33;4.93;;;4.43;;
78860;SDS011;68211;45.774;15.892;2023-05-07T00:34:59;6.05;;;4.30;;
78860;SDS011;68211;45.774;15.892;2023-05-07T00:37:26;4.63;;;4.20;;
78860;SDS011;68211;45.774;15.892;2023-05-07T00:39:52;8.32;;;4.47;;
78860;SDS011;68211;45.774;15.892;2023-05-07T00:42:18;4.38;;;3.97;;
78860;SDS011;68211;45.774;15.892;2023-05-07T00:44:45;4.32;;;3.92;;
78860;SDS011;68211;45.774;15.892;2023-05-07T00:47:11;4.35;;;3.95;;
78860;SDS011;68211;45.774;15.892;2023-05-07T00:49:39;6.13;;;4.03;;
78860;SDS011;68211;45.774;15.892;2023-05-07T00:52:11;5.40;;;4.05;;
78860;SDS011;68211;45.774;15.892;2023-05-07T00:54:37;4.50;;;4.10;;
78860;SDS011;68211;45.774;15.892;2023-05-07T00:57:04;6.03;;;4.35;;
78860;SDS011;68211;45.774;15.892;2023-05-07T00:59:31;4.10;;;3.80;;
78860;SDS011;68211;45.774;15.892;2023-05-07T01:01:58;5.80;;;4.30;;
78860;SDS011;68211;45.774;15.892;2023-05-07T01:04:24;4.03;;;3.72;;
78860;SDS011;68211;45.774;15.892;2023-05-07T01:06:52;4.55;;;4.18;;
78860;SDS011;68211;45.774;15.892;2023-05-07T01:09:20;4.82;;;4.38;;
78860;SDS011;68211;45.774;15.892;2023-05-07T01:11:47;4.43;;;4.03;;
78860;SDS011;68211;45.774;15.892;2023-05-07T01:14:13;4.82;;;4.35;;
78860;SDS011;68211;45.774;15.892;2023-05-07T01:16:40;4.35;;;3.90;;
78860;SDS011;68211;45.774;15.892;2023-05-07T01:19:12;5.90;;;4.25;;
78860;SDS011;68211;45.774;15.892;2023-05-07T01:21:38;4.30;;;3.90;;
78860;SDS011;68211;45.774;15.892;2023-05-07T01:24:06;5.13;;;4.07;;
78860;SDS011;68211;45.774;15.892;2023-05-07T01:26:33;5.65;;;4.00;;
78860;SDS011;68211;45.774;15.892;2023-05-07T01:28:59;4.50;;;4.10;;
78860;SDS011;68211;45.774;15.892;2023-05-07T01:31:25;4.65;;;4.20;;
78860;SDS011;68211;45.774;15.892;2023-05-07T01:33:52;6.07;;;4.35;;
78860;SDS011;68211;45.774;15.892;2023-05-07T01:36:19;5.03;;;3.90;;
78860;SDS011;68211;45.774;15.892;2023-05-07T01:38:46;4.07;;;3.78;;
78860;SDS011;68211;45.774;15.892;2023-05-07T01:41:14;4.00;;;3.63;;
78860;SDS011;68211;45.774;15.892;2023-05-07T01:43:40;3.97;;;3.67;;
78860;SDS011;68211;45.774;15.892;2023-05-07T01:46:13;4.05;;;3.80;;
78860;SDS011;68211;45.774;15.892;2023-05-07T01:48:40;4.78;;;3.67;;
78860;SDS011;68211;45.774;15.892;2023-05-07T01:51:07;6.32;;;3.90;;
78860;SDS011;68211;45.774;15.892;2023-05-07T01:53:37;4.95;;;4.00;;
78860;SDS011;68211;45.774;15.892;2023-05-07T01:56:04;4.18;;;3.78;;
78860;SDS011;68211;45.774;15.892;2023-05-07T01:58:32;5.25;;;3.88;;
78860;SDS011;68211;45.774;15.892;2023-05-07T02:00:58;4.30;;;3.90;;
78860;SDS011;68211;45.774;15.892;2023-05-07T02:03:25;4.10;;;3.80;;
78860;SDS011;68211;45.774;15.892;2023-05-07T02:05:51;3.65;;;3.35;;
78860;SDS011;68211;45.774;15.892;2023-05-07T02:08:18;8.20;;;3.60;;
78860;SDS011;68211;45.774;15.892;2023-05-07T02:10:44;4.15;;;3.78;;
78860;SDS011;68211;45.774;15.892;2023-05-07T02:13:17;5.70;;;3.58;;
78860;SDS011;68211;45.774;15.892;2023-05-07T02:15:45;3.80;;;3.50;;
78860;SDS011;68211;45.774;15.892;2023-05-07T02:18:11;3.83;;;3.63;;
78860;SDS011;68211;45.774;15.892;2023-05-07T02:20:38;3.78;;;3.47;;
78860;SDS011;68211;45.774;15.892;2023-05-07T02:23:04;3.78;;;3.47;;
78860;SDS011;68211;45.774;15.892;2023-05-07T02:25:31;3.63;;;3.33;;
78860;SDS011;68211;45.774;15.892;2023-05-07T02:27:57;6.15;;;3.72;;
78860;SDS011;68211;45.774;15.892;2023-05-07T02:30:24;3.40;;;3.20;;
78860;SDS011;68211;45.774;15.892;2023-05-07T02:32:52;3.88;;;3.30;;
78860;SDS011;68211;45.774;15.892;2023-05-07T02:35:18;3.60;;;3.17;;
78860;SDS011;68211;45.774;15.892;2023-05-07T02:37:44;3.90;;;3.58;;
78860;SDS011;68211;45.774;15.892;2023-05-07T02:40:13;4.35;;;3.50;;
78860;SDS011;68211;45.774;15.892;2023-05-07T02:42:39;3.38;;;3.17;;
78860;SDS011;68211;45.774;15.892;2023-05-07T02:45:06;8.70;;;3.40;;
78860;SDS011;68211;45.774;15.892;2023-05-07T02:47:33;3.72;;;3.45;;
78860;SDS011;68211;45.774;15.892;2023-05-07T02:50:01;4.03;;;3.53;;
78860;SDS011;68211;45.774;15.892;2023-05-07T02:52:27;3.88;;;3.58;;
78860;SDS011;68211;45.774;15.892;2023-05-07T02:54:54;3.80;;;3.50;;
78860;SDS011;68211;45.774;15.892;2023-05-07T02:57:20;5.03;;;3.60;;
78860;SDS011;68211;45.774;15.892;2023-05-07T02:59:46;4.65;;;3.90;;
78860;SDS011;68211;45.774;15.892;2023-05-07T03:02:13;4.18;;;3.78;;
78860;SDS011;68211;45.774;15.892;2023-05-07T03:04:39;4.38;;;3.85;;
78860;SDS011;68211;45.774;15.892;2023-05-07T03:07:07;4.32;;;3.90;;
78860;SDS011;68211;45.774;15.892;2023-05-07T03:09:34;4.10;;;3.70;;
78860;SDS011;68211;45.774;15.892;2023-05-07T03:12:00;4.28;;;3.97;;
78860;SDS011;68211;45.774;15.892;2023-05-07T03:14:26;4.15;;;3.85;;
78860;SDS011;68211;45.774;15.892;2023-05-07T03:16:53;4.72;;;4.10;;
78860;SDS011;68211;45.774;15.892;2023-05-07T03:19:19;4.30;;;4.00;;
78860;SDS011;68211;45.774;15.892;2023-05-07T03:21:46;5.90;;;4.32;;
78860;SDS011;68211;45.774;15.892;2023-05-07T03:24:16;4.70;;;4.22;;
78860;SDS011;68211;45.774;15.892;2023-05-07T03:26:43;5.70;;;4.00;;
78860;SDS011;68211;45.774;15.892;2023-05-07T03:29:09;4.40;;;4.00;;
78860;SDS011;68211;45.774;15.892;2023-05-07T03:31:35;5.47;;;4.20;;
78860;SDS011;68211;45.774;15.892;2023-05-07T03:34:02;6.15;;;3.95;;
78860;SDS011;68211;45.774;15.892;2023-05-07T03:36:28;8.45;;;3.95;;
78860;SDS011;68211;45.774;15.892;2023-05-07T03:38:55;11.02;;;4.65;;
78860;SDS011;68211;45.774;15.892;2023-05-07T03:41:22;6.93;;;4.32;;
78860;SDS011;68211;45.774;15.892;2023-05-07T03:43:49;4.50;;;4.10;;
78860;SDS011;68211;45.774;15.892;2023-05-07T03:46:15;4.80;;;4.40;;
78860;SDS011;68211;45.774;15.892;2023-05-07T03:48:42;5.10;;;4.32;;
78860;SDS011;68211;45.774;15.892;2023-05-07T03:51:08;6.38;;;3.88;;
78860;SDS011;68211;45.774;15.892;2023-05-07T03:53:35;5.78;;;4.03;;
78860;SDS011;68211;45.774;15.892;2023-05-07T03:56:01;4.10;;;3.80;;
78860;SDS011;68211;45.774;15.892;2023-05-07T03:58:29;5.88;;;3.33;;
78860;SDS011;68211;45.774;15.892;2023-05-07T04:00:55;5.70;;;3.70;;
78860;SDS011;68211;45.774;15.892;2023-05-07T04:03:22;4.22;;;3.58;;
78860;SDS011;68211;45.774;15.892;2023-05-07T04:05:48;3.53;;;3.33;;
78860;SDS011;68211;45.774;15.892;2023-05-07T04:08:15;3.75;;;3.55;;
78860;SDS011;68211;45.774;15.892;2023-05-07T04:10:41;4.57;;;3.75;;
78860;SDS011;68211;45.774;15.892;2023-05-07T04:13:08;3.40;;;3.10;;
78860;SDS011;68211;45.774;15.892;2023-05-07T04:15:36;3.72;;;3.42;;
78860;SDS011;68211;45.774;15.892;2023-05-07T04:18:02;3.53;;;3.28;;
78860;SDS011;68211;45.774;15.892;2023-05-07T04:20:29;4.00;;;3.60;;
78860;SDS011;68211;45.774;15.892;2023-05-07T04:22:55;5.00;;;3.42;;
78860;SDS011;68211;45.774;15.892;2023-05-07T04:25:22;3.33;;;3.13;;
78860;SDS011;68211;45.774;15.892;2023-05-07T04:27:48;3.60;;;3.30;;
78860;SDS011;68211;45.774;15.892;2023-05-07T04:30:15;4.43;;;3.70;;
78860;SDS011;68211;45.774;15.892;2023-05-07T04:32:43;3.75;;;3.42;;
78860;SDS011;68211;45.774;15.892;2023-05-07T04:35:09;3.72;;;3.40;;
78860;SDS011;68211;45.774;15.892;2023-05-07T04:37:45;3.83;;;3.50;;
78860;SDS011;68211;45.774;15.892;2023-05-07T04:40:14;3.77;;;3.40;;
78860;SDS011;68211;45.774;15.892;2023-05-07T04:42:41;3.47;;;3.22;;
78860;SDS011;68211;45.774;15.892;2023-05-07T04:45:07;3.80;;;3.50;;
78860;SDS011;68211;45.774;15.892;2023-05-07T04:47:34;5.40;;;3.72;;
78860;SDS011;68211;45.774;15.892;2023-05-07T04:50:02;3.95;;;3.50;;
78860;SDS011;68211;45.774;15.892;2023-05-07T04:52:28;3.60;;;3.40;;
78860;SDS011;68211;45.774;15.892;2023-05-07T04:55:00;4.07;;;3.67;;
78860;SDS011;68211;45.774;15.892;2023-05-07T04:57:40;3.83;;;3.50;;
78860;SDS011;68211;45.774;15.892;2023-05-07T05:00:07;4.15;;;3.75;;
78860;SDS011;68211;45.774;15.892;2023-05-07T05:02:34;4.80;;;3.75;;
78860;SDS011;68211;45.774;15.892;2023-05-07T05:05:02;4.88;;;4.20;;
78860;SDS011;68211;45.774;15.892;2023-05-07T05:07:29;4.78;;;4.10;;
78860;SDS011;68211;45.774;15.892;2023-05-07T05:09:55;4.55;;;4.03;;
78860;SDS011;68211;45.774;15.892;2023-05-07T05:12:21;4.80;;;4.32;;
78860;SDS011;68211;45.774;15.892;2023-05-07T05:14:48;5.30;;;4.80;;
78860;SDS011;68211;45.774;15.892;2023-05-07T05:17:14;5.28;;;4.88;;
78860;SDS011;68211;45.774;15.892;2023-05-07T05:19:41;5.00;;;4.60;;
78860;SDS011;68211;45.774;15.892;2023-05-07T05:22:08;4.85;;;4.45;;
78860;SDS011;68211;45.774;15.892;2023-05-07T05:24:35;8.45;;;4.93;;
78860;SDS011;68211;45.774;15.892;2023-05-07T05:27:01;5.00;;;4.45;;
78860;SDS011;68211;45.774;15.892;2023-05-07T05:29:28;4.85;;;4.35;;
78860;SDS011;68211;45.774;15.892;2023-05-07T05:31:54;5.97;;;4.90;;
78860;SDS011;68211;45.774;15.892;2023-05-07T05:34:21;4.70;;;4.30;;
78860;SDS011;68211;45.774;15.892;2023-05-07T05:39:33;4.93;;;4.32;;
78860;SDS011;68211;45.774;15.892;2023-05-07T05:41:59;4.72;;;4.32;;
78860;SDS011;68211;45.774;15.892;2023-05-07T05:44:26;8.05;;;4.38;;
78860;SDS011;68211;45.774;15.892;2023-05-07T05:46:52;5.35;;;4.00;;
78860;SDS011;68211;45.774;15.892;2023-05-07T05:49:19;4.45;;;4.13;;
78860;SDS011;68211;45.774;15.892;2023-05-07T05:51:45;4.28;;;3.88;;
78860;SDS011;68211;45.774;15.892;2023-05-07T05:54:12;3.38;;;3.13;;
78860;SDS011;68211;45.774;15.892;2023-05-07T05:56:39;3.00;;;2.80;;
78860;SDS011;68211;45.774;15.892;2023-05-07T05:59:06;3.00;;;2.65;;
78860;SDS011;68211;45.774;15.892;2023-05-07T06:01:32;2.95;;;2.70;;
78860;SDS011;68211;45.774;15.892;2023-05-07T06:03:59;2.70;;;2.50;;
78860;SDS011;68211;45.774;15.892;2023-05-07T06:06:25;2.80;;;2.60;;
78860;SDS011;68211;45.774;15.892;2023-05-07T06:08:52;2.33;;;2.13;;
78860;SDS011;68211;45.774;15.892;2023-05-07T06:11:18;2.28;;;2.17;;
78860;SDS011;68211;45.774;15.892;2023-05-07T06:13:46;3.08;;;2.38;;
78860;SDS011;68211;45.774;15.892;2023-05-07T06:16:12;2.17;;;2.03;;
78860;SDS011;68211;45.774;15.892;2023-05-07T06:18:39;3.28;;;2.20;;
78860;SDS011;68211;45.774;15.892;2023-05-07T06:21:05;2.17;;;2.08;;
78860;SDS011;68211;45.774;15.892;2023-05-07T06:23:31;2.30;;;2.20;;
78860;SDS011;68211;45.774;15.892;2023-05-07T06:25:58;3.22;;;2.20;;
78860;SDS011;68211;45.774;15.892;2023-05-07T06:28:24;3.42;;;2.22;;
78860;SDS011;68211;45.774;15.892;2023-05-07T06:30:52;3.58;;;2.10;;
78860;SDS011;68211;45.774;15.892;2023-05-07T06:33:19;2.50;;;2.30;;
78860;SDS011;68211;45.774;15.892;2023-05-07T06:35:45;2.47;;;2.25;;
78860;SDS011;68211;45.774;15.892;2023-05-07T06:38:11;2.35;;;2.25;;
78860;SDS011;68211;45.774;15.892;2023-05-07T06:40:38;3.38;;;2.60;;
78860;SDS011;68211;45.774;15.892;2023-05-07T06:43:04;2.30;;;2.20;;
78860;SDS011;68211;45.774;15.892;2023-05-07T06:45:31;3.33;;;2.60;;
78860;SDS011;68211;45.774;15.892;2023-05-07T06:47:59;2.30;;;2.20;;
78860;SDS011;68211;45.774;15.892;2023-05-07T06:50:25;2.38;;;2.28;;
78860;SDS011;68211;45.774;15.892;2023-05-07T06:52:52;2.90;;;2.60;;
78860;SDS011;68211;45.774;15.892;2023-05-07T06:55:18;2.55;;;2.35;;
78860;SDS011;68211;45.774;15.892;2023-05-07T06:57:44;2.70;;;2.50;;
78860;SDS011;68211;45.774;15.892;2023-05-07T07:00:11;2.85;;;2.30;;
78860;SDS011;68211;45.774;15.892;2023-05-07T07:02:39;2.80;;;2.60;;
78860;SDS011;68211;45.774;15.892;2023-05-07T07:05:07;3.53;;;3.00;;
78860;SDS011;68211;45.774;15.892;2023-05-07T07:07:34;3.65;;;2.97;;
78860;SDS011;68211;45.774;15.892;2023-05-07T07:10:00;3.70;;;2.65;;
78860;SDS011;68211;45.774;15.892;2023-05-07T07:12:26;2.60;;;2.50;;
78860;SDS011;68211;45.774;15.892;2023-05-07T07:14:53;3.28;;;2.97;;
78860;SDS011;68211;45.774;15.892;2023-05-07T07:17:20;2.88;;;2.67;;
78860;SDS011;68211;45.774;15.892;2023-05-07T07:19:46;2.85;;;2.65;;
78860;SDS011;68211;45.774;15.892;2023-05-07T07:22:14;3.95;;;2.67;;
78860;SDS011;68211;45.774;15.892;2023-05-07T07:24:40;3.03;;;2.60;;
78860;SDS011;68211;45.774;15.892;2023-05-07T07:27:07;3.58;;;2.42;;
78860;SDS011;68211;45.774;15.892;2023-05-07T07:29:33;3.38;;;2.78;;
78860;SDS011;68211;45.774;15.892;2023-05-07T07:32:00;3.40;;;2.60;;
78860;SDS011;68211;45.774;15.892;2023-05-07T07:34:26;2.35;;;2.25;;
78860;SDS011;68211;45.774;15.892;2023-05-07T07:36:52;2.78;;;2.55;;
78860;SDS011;68211;45.774;15.892;2023-05-07T07:39:20;2.90;;;2.47;;
78860;SDS011;68211;45.774;15.892;2023-05-07T07:41:47;4.03;;;2.60;;
78860;SDS011;68211;45.774;15.892;2023-05-07T07:44:13;2.70;;;2.50;;
78860;SDS011;68211;45.774;15.892;2023-05-07T07:46:41;2.80;;;2.58;;
78860;SDS011;68211;45.774;15.892;2023-05-07T07:49:08;2.70;;;2.50;;
78860;SDS011;68211;45.774;15.892;2023-05-07T07:51:34;3.03;;;2.80;;
78860;SDS011;68211;45.774;15.892;2023-05-07T07:54:01;4.20;;;2.78;;
78860;SDS011;68211;45.774;15.892;2023-05-07T07:56:28;2.60;;;2.40;;
78860;SDS011;68211;45.774;15.892;2023-05-07T07:58:55;2.78;;;2.58;;
78860;SDS011;68211;45.774;15.892;2023-05-07T08:01:21;2.92;;;2.70;;
78860;SDS011;68211;45.774;15.892;2023-05-07T08:03:48;2.70;;;2.50;;
78860;SDS011;68211;45.774;15.892;2023-05-07T08:06:14;3.15;;;2.85;;
78860;SDS011;68211;45.774;15.892;2023-05-07T08:08:41;4.40;;;3.08;;
78860;SDS011;68211;45.774;15.892;2023-05-07T08:11:07;3.70;;;2.75;;
78860;SDS011;68211;45.774;15.892;2023-05-07T08:13:35;2.97;;;2.72;;
78860;SDS011;68211;45.774;15.892;2023-05-07T08:16:02;5.40;;;2.83;;
78860;SDS011;68211;45.774;15.892;2023-05-07T08:18:28;2.97;;;2.78;;
78860;SDS011;68211;45.774;15.892;2023-05-07T08:20:54;6.25;;;2.90;;
78860;SDS011;68211;45.774;15.892;2023-05-07T08:23:21;3.10;;;2.90;;
78860;SDS011;68211;45.774;15.892;2023-05-07T08:25:48;3.50;;;3.20;;
78860;SDS011;68211;45.774;15.892;2023-05-07T08:28:14;3.28;;;3.08;;
78860;SDS011;68211;45.774;15.892;2023-05-07T08:30:45;3.15;;;2.95;;
78860;SDS011;68211;45.774;15.892;2023-05-07T08:33:12;4.70;;;3.20;;
78860;SDS011;68211;45.774;15.892;2023-05-07T08:35:38;4.07;;;3.08;;
78860;SDS011;68211;45.774;15.892;2023-05-07T08:38:05;2.63;;;2.53;;
78860;SDS011;68211;45.774;15.892;2023-05-07T08:40:32;3.42;;;3.13;;
78860;SDS011;68211;45.774;15.892;2023-05-07T08:43:02;3.10;;;2.85;;
78860;SDS011;68211;45.774;15.892;2023-05-07T08:45:29;7.05;;;2.95;;
78860;SDS011;68211;45.774;15.892;2023-05-07T08:47:58;2.90;;;2.70;;
78860;SDS011;68211;45.774;15.892;2023-05-07T08:50:25;4.40;;;3.28;;
78860;SDS011;68211;45.774;15.892;2023-05-07T08:52:51;3.03;;;2.80;;
78860;SDS011;68211;45.774;15.892;2023-05-07T08:55:18;4.43;;;3.00;;
78860;SDS011;68211;45.774;15.892;2023-05-07T08:57:44;3.45;;;3.10;;
78860;SDS011;68211;45.774;15.892;2023-05-07T09:00:11;3.10;;;2.90;;
78860;SDS011;68211;45.774;15.892;2023-05-07T09:02:38;5.43;;;3.00;;
78860;SDS011;68211;45.774;15.892;2023-05-07T09:05:06;6.88;;;3.03;;
78860;SDS011;68211;45.774;15.892;2023-05-07T09:07:33;3.97;;;3.67;;
78860;SDS011;68211;45.774;15.892;2023-05-07T09:10:00;5.28;;;3.60;;
78860;SDS011;68211;45.774;15.892;2023-05-07T09:12:27;3.53;;;3.17;;
78860;SDS011;68211;45.774;15.892;2023-05-07T09:14:54;3.22;;;3.03;;
78860;SDS011;68211;45.774;15.892;2023-05-07T09:17:20;3.50;;;2.97;;
78860;SDS011;68211;45.774;15.892;2023-05-07T09:19:46;6.70;;;3.10;;
78860;SDS011;68211;45.774;15.892;2023-05-07T09:22:14;3.20;;;2.88;;
78860;SDS011;68211;45.774;15.892;2023-05-07T09:24:41;4.68;;;2.90;;
78860;SDS011;68211;45.774;15.892;2023-05-07T09:27:13;4.40;;;3.17;;
78860;SDS011;68211;45.774;15.892;2023-05-07T09:29:39;5.75;;;3.45;;
78860;SDS011;68211;45.774;15.892;2023-05-07T09:32:06;4.75;;;2.90;;
78860;SDS011;68211;45.774;15.892;2023-05-07T09:34:33;3.42;;;2.90;;
78860;SDS011;68211;45.774;15.892;2023-05-07T09:37:00;3.78;;;3.20;;
78860;SDS011;68211;45.774;15.892;2023-05-07T09:39:28;4.03;;;3.05;;
78860;SDS011;68211;45.774;15.892;2023-05-07T09:42:04;4.00;;;3.60;;
78860;SDS011;68211;45.774;15.892;2023-05-07T09:44:33;3.78;;;3.38;;
78860;SDS011;68211;45.774;15.892;2023-05-07T09:46:59;4.03;;;3.63;;
78860;SDS011;68211;45.774;15.892;2023-05-07T09:49:28;3.63;;;3.33;;
78860;SDS011;68211;45.774;15.892;2023-05-07T09:51:55;3.60;;;3.30;;
78860;SDS011;68211;45.774;15.892;2023-05-07T09:54:21;5.60;;;3.70;;
78860;SDS011;68211;45.774;15.892;2023-05-07T09:56:49;3.90;;;3.60;;
78860;SDS011;68211;45.774;15.892;2023-05-07T09:59:17;5.50;;;4.25;;
78860;SDS011;68211;45.774;15.892;2023-05-07T10:01:44;4.78;;;4.32;;
78860;SDS011;68211;45.774;15.892;2023-05-07T10:04:11;5.43;;;4.45;;
78860;SDS011;68211;45.774;15.892;2023-05-07T10:06:38;4.13;;;3.80;;
78860;SDS011;68211;45.774;15.892;2023-05-07T10:09:06;5.00;;;4.20;;
78860;SDS011;68211;45.774;15.892;2023-05-07T10:11:32;4.90;;;4.32;;
78860;SDS011;68211;45.774;15.892;2023-05-07T10:14:01;4.40;;;4.10;;
78860;SDS011;68211;45.774;15.892;2023-05-07T10:16:30;6.43;;;4.68;;
78860;SDS011;68211;45.774;15.892;2023-05-07T10:18:57;4.72;;;4.32;;
78860;SDS011;68211;45.774;15.892;2023-05-07T10:21:24;4.63;;;4.18;;
78860;SDS011;68211;45.774;15.892;2023-05-07T10:23:53;4.72;;;4.32;;
78860;SDS011;68211;45.774;15.892;2023-05-07T10:26:22;4.82;;;4.18;;
78860;SDS011;68211;45.774;15.892;2023-05-07T10:28:50;4.55;;;4.15;;
78860;SDS011;68211;45.774;15.892;2023-05-07T10:33:48;4.90;;;4.50;;
78860;SDS011;68211;45.774;15.892;2023-05-07T10:36:15;5.07;;;4.50;;
78860;SDS011;68211;45.774;15.892;2023-05-07T10:38:41;5.07;;;4.68;;
78860;SDS011;68211;45.774;15.892;2023-05-07T10:41:08;4.57;;;4.18;;
78860;SDS011;68211;45.774;15.892;2023-05-07T10:43:38;4.00;;;3.70;;
78860;SDS011;68211;45.774;15.892;2023-05-07T10:46:13;4.72;;;3.70;;
78860;SDS011;68211;45.774;15.892;2023-05-07T10:51:26;5.03;;;4.40;;
78860;SDS011;68211;45.774;15.892;2023-05-07T10:56:35;5.90;;;4.30;;
78860;SDS011;68211;45.774;15.892;2023-05-07T11:01:49;3.67;;;3.38;;
78860;SDS011;68211;45.774;15.892;2023-05-07T11:04:16;3.22;;;2.95;;
78860;SDS011;68211;45.774;15.892;2023-05-07T11:06:46;4.00;;;3.00;;
78860;SDS011;68211;45.774;15.892;2023-05-07T11:12:14;5.85;;;3.10;;
78860;SDS011;68211;45.774;15.892;2023-05-07T11:14:43;4.05;;;3.38;;
78860;SDS011;68211;45.774;15.892;2023-05-07T11:17:10;3.63;;;3.28;;
78860;SDS011;68211;45.774;15.892;2023-05-07T11:19:49;3.83;;;3.20;;
78860;SDS011;68211;45.774;15.892;2023-05-07T11:22:37;5.13;;;3.22;;
78860;SDS011;68211;45.774;15.892;2023-05-07T11:25:03;3.13;;;2.90;;
78860;SDS011;68211;45.774;15.892;2023-05-07T11:27:30;3.47;;;3.10;;
78860;SDS011;68211;45.774;15.892;2023-05-07T11:29:56;3.38;;;3.08;;
78860;SDS011;68211;45.774;15.892;2023-05-07T11:32:23;3.33;;;2.85;;
78860;SDS011;68211;45.774;15.892;2023-05-07T11:34:52;5.25;;;3.08;;
78860;SDS011;68211;45.774;15.892;2023-05-07T11:37:18;3.00;;;2.80;;
78860;SDS011;68211;45.774;15.892;2023-05-07T11:39:46;2.67;;;2.47;;
78860;SDS011;68211;45.774;15.892;2023-05-07T11:42:25;2.80;;;2.70;;
78860;SDS011;68211;45.774;15.892;2023-05-07T11:44:51;3.50;;;2.93;;
78860;SDS011;68211;45.774;15.892;2023-05-07T11:47:18;3.28;;;2.97;;
78860;SDS011;68211;45.774;15.892;2023-05-07T11:49:47;3.20;;;2.63;;
78860;SDS011;68211;45.774;15.892;2023-05-07T11:52:13;2.80;;;2.40;;
78860;SDS011;68211;45.774;15.892;2023-05-07T11:54:40;2.60;;;2.50;;
78860;SDS011;68211;45.774;15.892;2023-05-07T11:57:08;3.42;;;2.97;;
78860;SDS011;68211;45.774;15.892;2023-05-07T11:59:40;2.88;;;2.60;;
78860;SDS011;68211;45.774;15.892;2023-05-07T12:02:07;3.42;;;3.03;;
78860;SDS011;68211;45.774;15.892;2023-05-07T12:04:33;4.47;;;2.65;;
78860;SDS011;68211;45.774;15.892;2023-05-07T12:07:00;2.90;;;2.70;;
78860;SDS011;68211;45.774;15.892;2023-05-07T12:09:26;6.03;;;3.00;;
78860;SDS011;68211;45.774;15.892;2023-05-07T12:11:53;3.30;;;2.33;;
78860;SDS011;68211;45.774;15.892;2023-05-07T12:14:20;3.28;;;2.90;;
78860;SDS011;68211;45.774;15.892;2023-05-07T12:16:47;3.03;;;2.83;;
78860;SDS011;68211;45.774;15.892;2023-05-07T12:19:13;2.72;;;2.53;;
78860;SDS011;68211;45.774;15.892;2023-05-07T12:21:41;2.63;;;2.50;;
78860;SDS011;68211;45.774;15.892;2023-05-07T12:24:07;2.80;;;2.60;;
78860;SDS011;68211;45.774;15.892;2023-05-07T12:26:37;3.25;;;2.92;;
78860;SDS011;68211;45.774;15.892;2023-05-07T12:29:03;4.65;;;2.90;;
78860;SDS011;68211;45.774;15.892;2023-05-07T12:31:31;2.90;;;2.70;;
78860;SDS011;68211;45.774;15.892;2023-05-07T12:33:57;2.95;;;2.60;;
78860;SDS011;68211;45.774;15.892;2023-05-07T12:36:24;2.90;;;2.58;;
78860;SDS011;68211;45.774;15.892;2023-05-07T12:38:50;2.90;;;2.70;;
78860;SDS011;68211;45.774;15.892;2023-05-07T12:41:17;2.78;;;2.55;;
78860;SDS011;68211;45.774;15.892;2023-05-07T12:43:43;3.33;;;2.70;;
78860;SDS011;68211;45.774;15.892;2023-05-07T12:46:10;3.65;;;2.50;;
78860;SDS011;68211;45.774;15.892;2023-05-07T12:48:38;3.28;;;2.97;;
78860;SDS011;68211;45.774;15.892;2023-05-07T12:51:05;3.03;;;2.70;;
78860;SDS011;68211;45.774;15.892;2023-05-07T12:53:31;4.53;;;2.90;;
78860;SDS011;68211;45.774;15.892;2023-05-07T12:55:58;2.88;;;2.67;;
78860;SDS011;68211;45.774;15.892;2023-05-07T12:58:25;2.60;;;2.40;;
78860;SDS011;68211;45.774;15.892;2023-05-07T13:00:51;2.55;;;2.45;;
78860;SDS011;68211;45.774;15.892;2023-05-07T13:03:21;2.53;;;2.42;;
78860;SDS011;68211;45.774;15.892;2023-05-07T13:05:50;2.90;;;2.70;;
78860;SDS011;68211;45.774;15.892;2023-05-07T13:08:26;2.67;;;2.47;;
78860;SDS011;68211;45.774;15.892;2023-05-07T13:10:52;3.55;;;2.58;;
78860;SDS011;68211;45.774;15.892;2023-05-07T13:13:19;2.78;;;2.58;;
78860;SDS011;68211;45.774;15.892;2023-05-07T13:15:45;3.95;;;2.83;;
78860;SDS011;68211;45.774;15.892;2023-05-07T13:18:12;2.58;;;2.38;;
78860;SDS011;68211;45.774;15.892;2023-05-07T13:20:38;4.47;;;2.85;;
78860;SDS011;68211;45.774;15.892;2023-05-07T13:23:06;2.35;;;2.25;;
78860;SDS011;68211;45.774;15.892;2023-05-07T13:25:33;2.88;;;2.60;;
78860;SDS011;68211;45.774;15.892;2023-05-07T13:27:59;3.08;;;2.40;;
78860;SDS011;68211;45.774;15.892;2023-05-07T13:30:36;3.40;;;2.33;;
78860;SDS011;68211;45.774;15.892;2023-05-07T13:33:03;2.60;;;2.40;;
78860;SDS011;68211;45.774;15.892;2023-05-07T13:35:29;2.60;;;2.40;;
78860;SDS011;68211;45.774;15.892;2023-05-07T13:37:56;3.25;;;2.17;;
78860;SDS011;68211;45.774;15.892;2023-05-07T13:40:24;2.70;;;2.50;;
78860;SDS011;68211;45.774;15.892;2023-05-07T13:42:50;2.45;;;2.10;;
78860;SDS011;68211;45.774;15.892;2023-05-07T13:45:17;2.50;;;2.40;;
78860;SDS011;68211;45.774;15.892;2023-05-07T13:47:44;2.55;;;2.35;;
78860;SDS011;68211;45.774;15.892;2023-05-07T13:50:10;2.30;;;2.20;;
78860;SDS011;68211;45.774;15.892;2023-05-07T13:52:37;4.18;;;2.78;;
78860;SDS011;68211;45.774;15.892;2023-05-07T13:55:04;3.28;;;2.55;;
78860;SDS011;68211;45.774;15.892;2023-05-07T13:57:32;4.80;;;2.72;;
78860;SDS011;68211;45.774;15.892;2023-05-07T13:59:58;2.63;;;2.42;;
78860;SDS011;68211;45.774;15.892;2023-05-07T14:02:25;4.68;;;2.60;;
78860;SDS011;68211;45.774;15.892;2023-05-07T14:04:51;5.65;;;2.55;;
78860;SDS011;68211;45.774;15.892;2023-05-07T14:07:18;5.25;;;2.50;;
78860;SDS011;68211;45.774;15.892;2023-05-07T14:09:44;4.60;;;2.50;;
78860;SDS011;68211;45.774;15.892;2023-05-07T14:12:11;4.18;;;2.60;;
78860;SDS011;68211;45.774;15.892;2023-05-07T14:14:38;9.30;;;2.97;;
78860;SDS011;68211;45.774;15.892;2023-05-07T14:17:05;3.95;;;2.53;;
78860;SDS011;68211;45.774;15.892;2023-05-07T14:19:31;11.15;;;3.03;;
78860;SDS011;68211;45.774;15.892;2023-05-07T14:21:58;3.30;;;2.70;;
78860;SDS011;68211;45.774;15.892;2023-05-07T14:24:24;4.15;;;2.60;;
78860;SDS011;68211;45.774;15.892;2023-05-07T14:27:03;3.80;;;2.70;;
78860;SDS011;68211;45.774;15.892;2023-05-07T14:29:30;2.65;;;2.42;;
78860;SDS011;68211;45.774;15.892;2023-05-07T14:31:58;6.47;;;2.60;;
78860;SDS011;68211;45.774;15.892;2023-05-07T14:34:24;5.28;;;2.88;;
78860;SDS011;68211;45.774;15.892;2023-05-07T14:36:50;6.15;;;2.70;;
78860;SDS011;68211;45.774;15.892;2023-05-07T14:39:17;3.95;;;3.05;;
78860;SDS011;68211;45.774;15.892;2023-05-07T14:41:43;5.75;;;2.63;;
78860;SDS011;68211;45.774;15.892;2023-05-07T14:44:09;8.20;;;2.55;;
78860;SDS011;68211;45.774;15.892;2023-05-07T14:46:36;4.72;;;3.03;;
78860;SDS011;68211;45.774;15.892;2023-05-07T14:49:04;4.57;;;2.63;;